Time;durP1;ratioP1;P1;durP2;ratioP2;P2;SDS_P1;SDS_P2;PMS_P1;PMS_P2;Temp;Humidity;BMP_temperature;BMP_pressure;BME280_temperature;BME280_humidity;BME280_pressure;Samples;Min_cycle;Max_cycle;Signal;HPM_P1;HPM_P2
2022/01/22 00:02:05;;;;;;;25.38;12.57;;;;;;;3.66;80.20;101281.03;5003626;28;20542;-72
2022/01/22 00:04:31;;;;;;;19.55;13.18;;;;;;;3.68;80.44;101286.28;5001113;28;20049;-71
2022/01/22 00:06:58;;;;;;;23.23;13.68;;;;;;;3.69;80.37;101288.00;5003838;28;20045;-71
2022/01/22 00:09:25;;;;;;;28.40;13.88;;;;;;;3.70;80.61;101286.28;4990225;28;20181;-73
2022/01/22 00:11:53;;;;;;;20.30;12.63;;;;;;;3.69;80.15;101285.41;4983654;28;20111;-71
2022/01/22 00:14:25;;;;;;;28.17;12.52;;;;;;;3.64;80.71;101280.19;4984164;28;20038;-72
2022/01/22 00:16:59;;;;;;;30.38;14.85;;;;;;;3.64;80.36;101282.81;4983701;28;20085;-72
2022/01/22 00:19:26;;;;;;;21.50;12.63;;;;;;;3.65;80.55;101281.91;4984789;28;20061;-73
2022/01/22 00:21:52;;;;;;;24.65;12.48;;;;;;;3.68;80.53;101273.22;4994203;28;20125;-72
2022/01/22 00:24:18;;;;;;;26.73;14.02;;;;;;;3.66;80.28;101281.03;5003933;28;20037;-73
2022/01/22 00:26:44;;;;;;;28.75;13.15;;;;;;;3.65;80.36;101278.44;5004040;28;20037;-72
2022/01/22 00:29:10;;;;;;;30.08;13.50;;;;;;;3.67;80.64;101284.53;5007606;28;20046;-73
2022/01/22 00:31:39;;;;;;;24.88;13.45;;;;;;;3.69;80.58;101287.13;5007631;28;20045;-73
2022/01/22 00:34:06;;;;;;;24.15;12.55;;;;;;;3.73;80.50;101283.69;5005301;28;20040;-72
2022/01/22 00:36:31;;;;;;;20.15;12.88;;;;;;;3.74;79.50;101285.41;5009543;28;20030;-73
2022/01/22 00:38:56;;;;;;;33.58;15.63;;;;;;;3.73;79.61;101286.28;5008987;28;20034;-72
2022/01/22 00:41:22;;;;;;;22.15;11.60;;;;;;;3.66;79.43;101283.66;5008383;28;20037;-71
2022/01/22 00:43:48;;;;;;;23.90;12.90;;;;;;;3.68;79.70;101274.97;4979806;28;20435;-71
2022/01/22 00:46:13;;;;;;;30.13;12.57;;;;;;;3.68;79.40;101274.97;4978658;28;20041;-72
2022/01/22 00:48:39;;;;;;;18.58;13.52;;;;;;;3.65;79.88;101274.09;5027192;28;20124;-72
2022/01/22 00:51:04;;;;;;;52.55;13.40;;;;;;;3.69;80.11;101276.72;4995111;28;20391;-72
2022/01/22 00:53:32;;;;;;;24.55;13.30;;;;;;;3.69;79.73;101279.31;4977009;28;20101;-72
2022/01/22 00:55:57;;;;;;;25.92;15.20;;;;;;;3.70;79.80;101284.56;5002662;28;20091;-73
2022/01/22 00:58:23;;;;;;;31.25;15.70;;;;;;;3.67;80.57;101284.53;5006714;28;20034;-72
2022/01/22 01:00:48;;;;;;;24.55;13.77;;;;;;;3.65;81.28;101284.53;5007002;28;20871;-72
2022/01/22 01:03:14;;;;;;;34.88;17.27;;;;;;;3.60;81.90;101294.06;5006934;28;20034;-72
2022/01/22 01:05:39;;;;;;;25.52;14.50;;;;;;;3.71;83.93;101290.63;5007436;28;20037;-67
2022/01/22 01:08:04;;;;;;;25.48;14.98;;;;;;;4.06;82.67;101294.22;5004657;28;20046;-67
2022/01/22 01:10:31;;;;;;;26.27;13.18;;;;;;;4.13;81.30;101300.28;5000789;28;20042;-68
2022/01/22 01:12:56;;;;;;;24.52;13.15;;;;;;;4.25;81.53;101294.22;5011909;28;20033;-68
2022/01/22 01:15:55;;;;;;;26.15;14.25;;;;;;;4.38;80.40;101284.66;5008441;28;20513;-74
2022/01/22 01:32:10;;;;;;;22.45;13.43;;;;;;;3.65;83.96;101284.53;5012105;28;20060;-73
2022/01/22 01:34:40;;;;;;;24.17;16.58;;;;;;;3.64;84.31;101289.72;5011000;28;20133;-72
2022/01/22 01:37:06;;;;;;;25.73;14.20;;;;;;;3.60;84.18;101283.66;5012774;28;20113;-72
2022/01/22 01:39:34;;;;;;;18.23;12.07;;;;;;;3.60;84.27;101281.03;5011490;28;20118;-72
2022/01/22 01:42:05;;;;;;;25.95;15.18;;;;;;;3.59;84.64;101281.91;5010431;28;20033;-74
2022/01/22 01:44:30;;;;;;;22.92;15.70;;;;;;;3.56;84.54;101278.41;5010855;28;20030;-72
2022/01/22 01:46:59;;;;;;;28.58;15.52;;;;;;;3.54;85.15;101274.91;5010957;28;20048;-73
2022/01/22 01:49:27;;;;;;;26.40;14.93;;;;;;;3.52;85.03;101277.53;5011438;28;20514;-72
2022/01/22 01:51:55;;;;;;;27.38;16.85;;;;;;;3.52;85.38;101276.66;5010296;28;20034;-72
2022/01/22 01:59:34;;;;;;;34.33;15.55;;;;;;;3.52;85.64;101274.94;5010985;28;20037;-73
2022/01/22 02:01:59;;;;;;;25.88;18.23;;;;;;;3.51;85.47;101273.16;4965130;28;20034;-73
2022/01/22 02:04:24;;;;;;;30.13;18.48;;;;;;;3.50;85.58;101275.78;5015300;28;20037;-73
2022/01/22 02:06:50;;;;;;;41.38;22.45;;;;;;;3.50;85.29;101271.44;5014474;28;20073;-74
2022/01/22 02:09:15;;;;;;;34.15;19.27;;;;;;;3.49;85.39;101280.13;5010364;28;20026;-72
2022/01/22 02:11:42;;;;;;;30.13;20.15;;;;;;;3.50;85.58;101275.78;5010639;28;20038;-72
2022/01/22 02:25:00;;;;;;;38.85;19.65;;;;;;;3.51;84.83;101270.56;5009823;28;20735;-72
2022/01/22 02:27:25;;;;;;;33.13;17.75;;;;;;;3.53;85.38;101261.03;5010890;28;20141;-72
2022/01/22 02:29:51;;;;;;;34.25;18.85;;;;;;;3.54;84.97;101267.97;5010547;28;20044;-74
2022/01/22 02:35:08;;;;;;;35.00;18.33;;;;;;;3.56;84.87;101261.03;5009695;28;20034;-72
2022/01/22 02:37:37;;;;;;;40.53;20.58;;;;;;;3.59;84.67;101265.38;5010225;28;20040;-72
2022/01/22 02:40:10;;;;;;;33.03;17.52;;;;;;;3.57;84.54;101257.56;5010407;28;20411;-72
2022/01/22 02:42:35;;;;;;;27.42;18.20;;;;;;;3.58;84.30;101258.44;5007151;28;20041;-72
2022/01/22 02:45:07;;;;;;;27.25;17.17;;;;;;;3.61;84.59;101253.22;5009665;28;20387;-72
2022/01/22 02:47:33;;;;;;;34.88;19.25;;;;;;;3.63;84.40;101251.50;5010130;28;20434;-72
2022/01/22 02:49:59;;;;;;;32.10;20.83;;;;;;;3.62;83.95;101250.63;5010518;28;20037;-73
2022/01/22 02:52:24;;;;;;;33.35;18.42;;;;;;;3.61;84.26;101259.28;5006985;28;20038;-72
2022/01/22 02:54:50;;;;;;;27.83;17.52;;;;;;;3.61;84.15;101250.59;5006777;28;21630;-72
2022/01/22 02:57:15;;;;;;;36.65;18.63;;;;;;;3.64;84.15;101258.44;5012148;28;20036;-71
2022/01/22 02:59:41;;;;;;;31.58;20.08;;;;;;;3.64;84.21;101256.72;5009770;28;20042;-72
2022/01/22 03:02:08;;;;;;;25.65;17.33;;;;;;;3.65;84.15;101255.84;5009695;28;20053;-73
2022/01/22 03:04:34;;;;;;;36.20;19.45;;;;;;;3.63;84.10;101259.31;5009586;28;20403;-72
2022/01/22 03:06:59;;;;;;;27.73;17.90;;;;;;;3.64;83.78;101263.66;5009927;28;20040;-73
2022/01/22 03:09:30;;;;;;;27.42;17.02;;;;;;;3.64;83.69;101259.34;5010132;28;20174;-73
2022/01/22 03:22:31;;;;;;;34.95;17.45;;;;;;;3.76;83.20;101247.16;5024936;28;20044;-74
2022/01/22 03:27:40;;;;;;;35.08;17.17;;;;;;;3.74;82.46;101252.41;5013333;28;20048;-73
2022/01/22 03:30:06;;;;;;;30.67;18.08;;;;;;;3.78;82.35;101250.66;5009308;28;20399;-73
2022/01/22 03:32:38;;;;;;;23.85;15.63;;;;;;;3.77;82.58;101248.94;5009245;28;20725;-72
2022/01/22 03:35:13;;;;;;;26.58;16.90;;;;;;;3.79;82.65;101257.59;5008477;28;20116;-72
2022/01/22 03:37:41;;;;;;;32.33;17.65;;;;;;;3.80;82.38;101252.41;5009179;28;20029;-72
2022/01/22 03:40:08;;;;;;;32.78;15.45;;;;;;;3.81;82.17;101250.66;5009071;28;20041;-73
2022/01/22 03:42:34;;;;;;;29.98;15.27;;;;;;;3.81;82.08;101258.47;5008899;28;20026;-73
2022/01/22 03:45:04;;;;;;;21.35;15.75;;;;;;;3.82;82.02;101245.47;5007210;28;20092;-74
2022/01/22 03:47:29;;;;;;;24.90;15.55;;;;;;;3.79;82.07;101252.38;5009305;28;20041;-74
2022/01/22 03:49:55;;;;;;;24.27;14.65;;;;;;;3.78;82.01;101243.69;5009704;28;20041;-73
2022/01/22 03:52:20;;;;;;;26.02;14.48;;;;;;;3.82;82.22;101241.97;5010912;28;20025;-73
2022/01/22 03:54:46;;;;;;;28.40;14.77;;;;;;;3.82;81.84;101241.97;5010646;28;20037;-73
2022/01/22 03:57:11;;;;;;;21.23;15.65;;;;;;;3.81;81.66;101243.69;5009751;28;20042;-73
2022/01/22 03:59:36;;;;;;;34.83;15.73;;;;;;;3.81;82.10;101248.91;5009238;28;20484;-73
2022/01/22 04:02:39;;;;;;;26.55;15.30;;;;;;;3.81;81.95;101248.91;5008544;28;20026;-73
2022/01/22 04:04:58;;;;;;;29.80;16.92;;;;;;;3.82;81.88;101255.03;5007566;28;20096;-74
2022/01/22 04:08:09;;;;;;;25.55;16.45;;;;;;;3.81;82.43;101246.31;5008649;28;20045;-72
2022/01/22 04:10:13;;;;;;;25.17;18.08;;;;;;;3.84;81.99;101248.06;4999956;28;20407;-73
2022/01/22 04:12:56;;;;;;;24.15;16.10;;;;;;;3.86;81.78;101249.81;5008147;28;20388;-74
2022/01/22 04:15:25;;;;;;;21.45;15.65;;;;;;;3.86;81.96;101255.03;5007347;28;20494;-74
2022/01/22 04:26:14;;;;;;;34.03;16.60;;;;;;;3.90;81.98;101255.03;5007787;28;20029;-74
2022/01/22 04:28:39;;;;;;;36.70;16.30;;;;;;;3.91;81.53;101244.59;5008759;28;20117;-73
2022/01/22 04:31:05;;;;;;;21.92;16.95;;;;;;;3.94;81.27;101251.53;5009073;28;20204;-73
2022/01/22 04:33:30;;;;;;;28.73;17.13;;;;;;;3.94;81.58;101255.03;5008964;28;20114;-73
2022/01/22 04:35:55;;;;;;;21.63;15.85;;;;;;;3.91;81.71;101255.03;5007144;28;20495;-72
2022/01/22 04:38:21;;;;;;;26.45;15.38;;;;;;;3.96;81.58;101258.50;5002026;28;20539;-73
2022/01/22 04:40:46;;;;;;;26.42;18.35;;;;;;;3.96;81.07;101257.63;4988793;28;20035;-73
2022/01/22 04:43:12;;;;;;;24.17;16.38;;;;;;;3.91;81.66;101262.84;4986610;28;20507;-73
2022/01/22 04:55:44;;;;;;;26.08;16.42;;;;;;;3.96;81.46;101258.50;5007257;28;20042;-73
2022/01/22 04:58:10;;;;;;;21.85;18.05;;;;;;;3.94;81.08;101272.41;4990787;28;20030;-73
2022/01/22 05:00:37;;;;;;;31.90;18.70;;;;;;;3.95;81.30;101262.00;5008524;28;20121;-73
2022/01/22 05:03:04;;;;;;;33.97;19.65;;;;;;;3.95;81.59;101261.13;5006991;28;20026;-73
2022/01/22 05:05:30;;;;;;;37.58;19.55;;;;;;;3.97;81.49;101265.47;5007654;28;20030;-73
2022/01/22 05:07:55;;;;;;;32.45;18.13;;;;;;;3.98;82.23;101259.38;5009321;28;20042;-73
2022/01/22 05:10:21;;;;;;;23.60;16.75;;;;;;;3.99;81.46;101258.53;4975464;28;20555;-73
2022/01/22 05:12:46;;;;;;;26.45;19.45;;;;;;;3.97;81.63;101251.56;5007568;28;20414;-73
2022/01/22 05:15:13;;;;;;;33.72;19.55;;;;;;;3.95;81.44;101253.31;5009971;28;20034;-73
2022/01/22 05:17:41;;;;;;;34.60;20.67;;;;;;;3.94;82.00;101255.03;5011512;28;20036;-72
2022/01/22 05:20:20;;;;;;;31.17;20.55;;;;;;;3.93;82.52;101261.13;5012096;28;20026;-72
2022/01/22 05:23:09;;;;;;;31.98;20.23;;;;;;;3.96;82.78;101255.03;5011775;28;20140;-72
2022/01/22 05:25:40;;;;;;;34.28;20.67;;;;;;;3.94;82.38;101257.66;4998554;28;20407;-71
2022/01/22 05:30:51;;;;;;;30.67;20.38;;;;;;;3.94;82.77;101248.94;5011772;28;20034;-71
2022/01/22 05:38:22;;;;;;;45.53;21.00;;;;;;;3.95;83.29;101256.78;5007472;28;20511;-70
2022/01/22 05:40:47;;;;;;;30.23;21.02;;;;;;;4.00;82.89;101256.78;5011200;28;20105;-72
2022/01/22 05:43:13;;;;;;;38.03;24.02;;;;;;;4.02;83.44;101258.53;5011342;28;20167;-70
2022/01/22 05:45:38;;;;;;;33.33;23.42;;;;;;;4.01;83.18;101263.72;5010049;28;20160;-73
2022/01/22 05:48:04;;;;;;;37.42;22.00;;;;;;;4.03;83.08;101262.00;5010902;28;20029;-73
2022/01/22 05:50:34;;;;;;;41.92;22.95;;;;;;;4.04;83.38;101263.75;5009761;28;20573;-74
2022/01/22 05:53:13;;;;;;;35.08;22.33;;;;;;;4.03;83.18;101262.00;5010614;28;20038;-73
2022/01/22 05:59:35;;;;;;;39.20;23.83;;;;;;;4.02;83.38;101265.50;5010079;28;20057;-73
2022/01/22 06:01:13;;;;;;;42.40;25.48;;;;;;;4.05;83.37;101268.97;5010371;28;20036;-73
2022/01/22 06:03:39;;;;;;;44.17;25.67;;;;;;;4.09;83.13;101278.53;5010509;28;20491;-72
2022/01/22 06:06:05;;;;;;;35.65;25.88;;;;;;;4.11;83.40;101272.44;5009900;28;20041;-73
2022/01/22 06:08:33;;;;;;;38.00;24.45;;;;;;;4.11;83.62;101275.06;4994607;28;20543;-73
2022/01/22 06:11:07;;;;;;;47.92;24.85;;;;;;;4.11;83.71;101281.16;5010567;28;20034;-73
2022/01/22 06:13:43;;;;;;;39.17;26.42;;;;;;;4.12;83.64;101287.25;5010333;28;20030;-73
2022/01/22 06:16:10;;;;;;;33.50;24.85;;;;;;;4.10;83.97;101279.41;5009505;28;20034;-74
2022/01/22 06:18:35;;;;;;;42.78;25.80;;;;;;;4.15;83.79;101287.25;5010262;28;20089;-74
2022/01/22 06:21:01;;;;;;;53.10;26.65;;;;;;;4.14;83.96;101281.16;5010878;28;20148;-75
2022/01/22 06:23:26;;;;;;;44.95;31.25;;;;;;;4.12;83.79;101280.28;5010473;28;20113;-74
2022/01/22 06:25:51;;;;;;;51.08;30.98;;;;;;;4.13;83.82;101278.53;5009100;28;20079;-74
2022/01/22 06:28:17;;;;;;;40.70;28.20;;;;;;;4.15;83.82;101279.41;5010165;28;20546;-75
2022/01/22 06:30:44;;;;;;;42.10;29.88;;;;;;;4.17;84.11;101280.31;5009091;28;20402;-74
2022/01/22 06:33:10;;;;;;;47.97;29.73;;;;;;;4.18;84.44;101279.41;5010412;28;20487;-73
2022/01/22 06:35:35;;;;;;;45.75;28.10;;;;;;;4.19;83.90;101278.56;5009182;28;20125;-73
2022/01/22 06:38:03;;;;;;;46.45;32.63;;;;;;;4.20;83.96;101280.28;5008170;28;20030;-73
2022/01/22 06:42:54;;;;;;;47.40;33.58;;;;;;;4.19;84.22;101275.97;5006084;28;20114;-73
2022/01/22 06:45:19;;;;;;;44.20;29.98;;;;;;;4.19;84.19;101279.44;4988811;28;20034;-74
2022/01/22 06:47:45;;;;;;;52.13;33.90;;;;;;;4.17;84.46;101278.56;4986289;28;20034;-72
2022/01/22 06:50:10;;;;;;;50.95;35.08;;;;;;;4.17;84.56;101285.53;4990717;28;20041;-73
2022/01/22 06:52:37;;;;;;;47.95;32.90;;;;;;;4.19;84.69;101283.78;4992065;28;20510;-72
2022/01/22 06:55:03;;;;;;;49.58;33.97;;;;;;;4.17;84.61;101286.38;4990473;28;20041;-72
2022/01/22 06:57:29;;;;;;;48.97;34.55;;;;;;;4.19;84.89;101289.00;4990344;28;20050;-72
2022/01/22 06:59:54;;;;;;;55.15;35.63;;;;;;;4.16;85.27;101295.09;4990546;28;20053;-73
2022/01/22 07:02:20;;;;;;;58.05;31.35;;;;;;;4.15;84.82;101293.34;4990170;28;20026;-72
2022/01/22 07:04:46;;;;;;;54.50;33.85;;;;;;;4.16;85.06;101300.31;4989454;28;20399;-74
2022/01/22 07:07:12;;;;;;;54.03;34.60;;;;;;;4.20;84.76;101306.41;4989721;28;20041;-75
2022/01/22 07:09:38;;;;;;;51.15;33.83;;;;;;;4.19;85.05;101304.66;4990150;28;20487;-75
2022/01/22 07:12:05;;;;;;;57.92;33.47;;;;;;;4.19;84.51;101313.38;4990046;28;20054;-74
2022/01/22 07:14:30;;;;;;;56.00;35.72;;;;;;;4.21;84.83;101309.03;4989089;28;20030;-73
2022/01/22 07:16:56;;;;;;;60.70;35.28;;;;;;;4.24;85.04;101313.38;4990143;28;20103;-72
2022/01/22 07:19:21;;;;;;;51.42;33.63;;;;;;;4.24;85.32;101310.75;4990597;28;20034;-74
2022/01/22 07:21:56;;;;;;;47.20;30.00;;;;;;;4.28;84.93;101315.09;4991635;28;20038;-71
2022/01/22 07:24:26;;;;;;;46.20;32.75;;;;;;;4.30;85.01;101313.38;5008918;28;20040;-72
2022/01/22 07:26:54;;;;;;;50.90;32.88;;;;;;;4.28;84.96;101310.78;5008973;28;20120;-72
2022/01/22 07:29:21;;;;;;;50.05;32.67;;;;;;;4.28;85.07;101316.00;5008315;28;20034;-73
2022/01/22 07:31:46;;;;;;;41.38;30.05;;;;;;;4.30;85.73;101321.19;4991023;28;20563;-73
2022/01/22 07:34:12;;;;;;;49.67;32.92;;;;;;;4.31;85.28;101317.75;5007859;28;20137;-72
2022/01/22 07:36:37;;;;;;;49.25;33.88;;;;;;;4.32;85.65;101331.66;5008013;28;20040;-73
2022/01/22 07:39:03;;;;;;;44.50;30.90;;;;;;;4.34;85.65;101330.78;5008300;28;20049;-73
2022/01/22 07:41:28;;;;;;;50.30;32.22;;;;;;;4.37;85.49;101335.13;5008078;28;20507;-74
2022/01/22 07:43:54;;;;;;;56.33;37.65;;;;;;;4.39;85.31;101339.50;5008868;28;20060;-74
2022/01/22 07:46:19;;;;;;;42.28;30.85;;;;;;;4.38;85.45;101343.00;4990819;28;20113;-73
2022/01/22 07:48:45;;;;;;;46.83;31.80;;;;;;;4.40;85.42;101346.44;5008558;28;20037;-71
2022/01/22 07:51:10;;;;;;;44.10;30.27;;;;;;;4.42;85.50;101342.09;5007855;28;20509;-73
2022/01/22 07:53:36;;;;;;;52.58;34.45;;;;;;;4.43;85.29;101349.09;5007705;28;20087;-74
2022/01/22 07:56:01;;;;;;;47.33;34.20;;;;;;;4.45;85.25;101343.84;5007423;28;20041;-72
2022/01/22 07:58:26;;;;;;;49.47;33.13;;;;;;;4.45;85.04;101352.53;5008807;28;20029;-72
2022/01/22 08:00:52;;;;;;;47.15;33.75;;;;;;;4.44;84.69;101348.19;5008090;28;20133;-75
2022/01/22 08:03:17;;;;;;;44.00;32.63;;;;;;;4.44;85.16;101356.03;5008157;28;20483;-72
2022/01/22 08:05:44;;;;;;;67.82;35.53;;;;;;;4.44;85.02;101358.66;4990141;28;20038;-72
2022/01/22 08:08:10;;;;;;;61.13;38.33;;;;;;;4.46;85.24;101356.06;5008211;28;20133;-73
2022/01/22 08:10:35;;;;;;;51.15;34.67;;;;;;;4.47;84.74;101358.63;5008139;28;20437;-72
2022/01/22 08:13:01;;;;;;;51.95;32.60;;;;;;;4.48;85.43;101355.19;5008163;28;20470;-73
2022/01/22 08:15:26;;;;;;;45.95;31.25;;;;;;;4.52;84.99;101353.44;5008546;28;20042;-71
2022/01/22 08:17:52;;;;;;;45.15;32.40;;;;;;;4.50;84.83;101356.06;5009505;28;20057;-72
2022/01/22 08:20:20;;;;;;;46.38;33.15;;;;;;;4.49;84.80;101348.22;5008959;28;20085;-72
2022/01/22 08:22:46;;;;;;;42.63;31.48;;;;;;;4.49;84.82;101356.91;5008124;28;20521;-71
2022/01/22 08:25:12;;;;;;;47.78;32.00;;;;;;;4.52;85.38;101356.91;5007701;28;20058;-74
2022/01/22 08:28:53;;;;;;;51.38;34.75;;;;;;;4.51;85.21;101352.56;5008202;28;20061;-73
2022/01/22 08:30:25;;;;;;;53.85;35.67;;;;;;;4.51;85.00;101357.78;5007743;28;20030;-74
2022/01/22 08:33:08;;;;;;;53.83;33.60;;;;;;;4.52;84.90;101367.34;4999802;28;20033;-74
2022/01/22 08:35:53;;;;;;;56.58;33.10;;;;;;;4.56;85.34;101373.47;5007285;28;20617;-73
2022/01/22 08:38:20;;;;;;;48.92;32.20;;;;;;;4.59;84.89;101375.22;5007356;28;20029;-73
2022/01/22 08:40:45;;;;;;;50.35;33.92;;;;;;;4.58;84.78;101371.72;5007522;28;20096;-74
2022/01/22 08:43:11;;;;;;;45.65;29.38;;;;;;;4.62;84.68;101377.81;5007274;28;20034;-72
2022/01/22 08:45:36;;;;;;;55.88;31.50;;;;;;;4.63;84.90;101370.00;5007971;28;20121;-73
2022/01/22 08:48:03;;;;;;;54.05;33.47;;;;;;;4.64;84.87;101371.72;5009893;28;20038;-72
2022/01/22 08:50:28;;;;;;;50.28;35.28;;;;;;;4.67;84.75;101370.84;5029493;28;20053;-73
2022/01/22 08:52:54;;;;;;;52.00;32.28;;;;;;;4.70;84.58;101376.06;5007005;28;20102;-73
2022/01/22 08:55:19;;;;;;;48.45;32.28;;;;;;;4.71;84.74;101377.81;4991201;28;20046;-72
2022/01/22 08:57:49;;;;;;;46.47;31.05;;;;;;;4.71;84.43;101372.59;4993513;28;20037;-73
2022/01/22 09:00:17;;;;;;;51.00;30.15;;;;;;;4.74;84.37;101377.81;4992545;28;20578;-72
2022/01/22 09:02:44;;;;;;;43.95;31.13;;;;;;;4.77;84.65;101372.59;4991042;28;20141;-73
2022/01/22 09:05:10;;;;;;;50.30;32.85;;;;;;;4.82;84.77;101377.81;4990996;28;20093;-73
2022/01/22 09:07:35;;;;;;;50.17;33.47;;;;;;;4.85;84.58;101381.31;4991621;28;20038;-74
2022/01/22 09:10:01;;;;;;;51.80;32.67;;;;;;;4.86;84.38;101382.19;4992531;28;20439;-73
2022/01/22 09:12:26;;;;;;;45.88;29.77;;;;;;;4.89;84.58;101377.81;4997566;28;20030;-74
2022/01/22 09:14:52;;;;;;;49.05;32.67;;;;;;;4.91;84.29;101376.06;5011364;28;20041;-73
2022/01/22 09:17:17;;;;;;;48.03;33.20;;;;;;;4.95;84.50;101375.22;5011869;28;20169;-74
2022/01/22 09:19:46;;;;;;;48.80;31.45;;;;;;;4.95;84.58;101385.66;5012311;28;20034;-74
2022/01/22 09:22:12;;;;;;;42.58;28.00;;;;;;;4.96;84.62;101391.75;5011842;28;20102;-74
2022/01/22 09:24:37;;;;;;;42.47;27.98;;;;;;;4.99;84.59;101388.28;5011389;28;20042;-75
2022/01/22 09:27:05;;;;;;;45.55;28.65;;;;;;;5.01;84.60;101390.00;5010861;28;20036;-74
2022/01/22 09:29:31;;;;;;;51.47;29.13;;;;;;;5.03;84.20;101392.63;5011183;28;20092;-74
2022/01/22 09:31:56;;;;;;;44.80;29.50;;;;;;;5.03;84.48;101392.63;5019326;28;20042;-74
2022/01/22 09:34:21;;;;;;;43.28;27.70;;;;;;;5.03;84.92;101396.13;5023989;28;20029;-74
2022/01/22 09:36:47;;;;;;;41.95;29.13;;;;;;;5.05;84.27;101393.50;5025177;28;20045;-73
2022/01/22 09:39:13;;;;;;;43.80;29.40;;;;;;;5.03;84.89;101397.88;5018396;28;20088;-74
2022/01/22 09:41:38;;;;;;;41.15;30.35;;;;;;;5.02;84.56;101393.50;5011700;28;20487;-73
2022/01/22 09:44:05;;;;;;;48.08;31.70;;;;;;;4.99;84.18;101391.75;5010428;28;20037;-75
2022/01/22 09:46:31;;;;;;;44.22;30.05;;;;;;;4.96;84.35;101394.38;5011486;28;20036;-73
2022/01/22 09:48:57;;;;;;;49.22;34.08;;;;;;;4.91;84.48;101391.75;5011340;28;20030;-73
2022/01/22 09:51:23;;;;;;;41.05;29.77;;;;;;;4.91;84.65;101389.16;5011604;28;20547;-73
2022/01/22 09:53:48;;;;;;;54.20;36.25;;;;;;;4.95;85.24;101396.13;5011312;28;20038;-73
2022/01/22 09:56:19;;;;;;;46.17;31.83;;;;;;;5.00;84.99;101390.03;5010079;28;20042;-72
2022/01/22 09:58:44;;;;;;;49.15;31.20;;;;;;;5.00;85.46;101401.34;5012035;28;20034;-74
2022/01/22 10:01:19;;;;;;;50.80;30.35;;;;;;;5.03;85.09;101397.88;5011445;28;20033;-72
2022/01/22 10:03:45;;;;;;;43.53;30.75;;;;;;;5.06;85.17;101390.88;5011661;28;20046;-72
2022/01/22 10:06:31;;;;;;;43.45;31.55;;;;;;;5.11;85.03;101396.09;5011269;28;20148;-72
2022/01/22 10:09:25;;;;;;;;;;;;;;;5.15;84.57;101392.63;5011915;28;20546;-73
2022/01/22 10:12:14;;;;;;;47.58;29.83;;;;;;;5.20;84.20;101396.09;5011130;28;20601;-73
2022/01/22 10:15:03;;;;;;;39.05;26.80;;;;;;;5.29;83.76;101392.59;5019918;28;20042;-71
2022/01/22 10:17:47;;;;;;;44.97;28.52;;;;;;;5.32;84.00;101393.47;5016078;28;20037;-73
2022/01/22 10:20:21;;;;;;;39.17;26.33;;;;;;;5.31;83.13;101396.94;5018909;28;20030;-75
2022/01/22 10:23:10;;;;;;;45.83;28.48;;;;;;;5.32;83.27;101401.31;4999949;28;20453;-75
2022/01/22 10:25:41;;;;;;;36.15;26.58;;;;;;;5.40;83.37;101393.44;5010456;28;20046;-70
2022/01/22 10:28:17;;;;;;;44.10;32.13;;;;;;;5.44;83.49;101389.97;5019422;28;20065;-71
2022/01/22 10:30:45;;;;;;;43.58;29.35;;;;;;;5.47;82.98;101387.34;5014298;28;20045;-70
2022/01/22 10:33:32;;;;;;;38.60;26.10;;;;;;;5.55;83.70;101395.16;5018508;28;20430;-70
2022/01/22 10:36:18;;;;;;;45.08;25.77;;;;;;;5.59;83.34;101394.28;5018107;28;20042;-69
2022/01/22 10:38:45;;;;;;;40.50;27.38;;;;;;;5.66;83.25;101395.13;5016987;28;20474;-70
2022/01/22 10:41:12;;;;;;;47.13;28.92;;;;;;;5.69;82.58;101398.63;5010881;28;20405;-70
2022/01/22 10:43:43;;;;;;;40.90;25.75;;;;;;;5.71;82.80;101395.97;5010854;28;20042;-69
2022/01/22 10:48:44;;;;;;;37.42;26.38;;;;;;;5.72;83.10;101397.72;5013086;28;20034;-69
2022/01/22 10:51:12;;;;;;;37.05;25.52;;;;;;;5.69;83.27;101387.28;5010903;28;20041;-70
2022/01/22 10:53:49;;;;;;;37.70;25.50;;;;;;;5.64;83.04;101396.91;5009406;28;20197;-70
2022/01/22 10:56:17;;;;;;;35.88;25.63;;;;;;;5.60;83.64;101398.63;4992297;28;20030;-72
2022/01/22 10:59:00;;;;;;;38.53;27.23;;;;;;;5.60;83.51;101394.25;4998988;28;20040;-69
2022/01/22 11:01:59;;;;;;;33.75;24.42;;;;;;;5.60;83.87;101393.41;5012504;28;20517;-70
2022/01/22 11:04:27;;;;;;;33.92;25.33;;;;;;;5.57;83.83;101386.44;5007560;28;20120;-70
2022/01/22 11:06:59;;;;;;;47.50;29.33;;;;;;;5.54;83.66;101385.59;5003280;28;20038;-71
2022/01/22 11:09:28;;;;;;;40.17;27.00;;;;;;;5.52;83.94;101382.09;5013398;28;20048;-71
2022/01/22 11:11:54;;;;;;;37.10;25.10;;;;;;;5.51;84.54;101388.19;5002897;28;20121;-71
2022/01/22 11:14:19;;;;;;;42.50;26.60;;;;;;;5.53;84.66;101387.31;5001453;28;20121;-72
2022/01/22 11:16:48;;;;;;;40.05;28.75;;;;;;;5.56;84.31;101381.19;4987339;28;20097;-72
2022/01/22 11:19:17;;;;;;;37.30;25.30;;;;;;;5.60;84.62;101383.78;5000192;28;20034;-73
2022/01/22 11:21:47;;;;;;;40.72;27.45;;;;;;;5.61;84.54;101379.44;5014657;28;20151;-71
2022/01/22 11:24:13;;;;;;;43.22;28.98;;;;;;;5.64;84.50;101379.44;5015487;28;20041;-73
2022/01/22 11:26:39;;;;;;;37.55;25.17;;;;;;;5.65;84.46;101378.56;5029104;28;20137;-72
2022/01/22 11:29:06;;;;;;;37.55;27.17;;;;;;;5.70;84.77;101366.31;5026402;28;20718;-71
2022/01/22 11:31:32;;;;;;;49.97;29.08;;;;;;;5.75;83.99;101369.78;5027225;28;20029;-72
2022/01/22 11:34:00;;;;;;;44.50;28.33;;;;;;;5.77;84.12;101375.03;5026753;28;20112;-72
2022/01/22 11:36:53;;;;;;;38.00;27.00;;;;;;;5.89;83.86;101371.50;5026688;28;20071;-72
2022/01/22 11:39:23;;;;;;;36.47;25.30;;;;;;;5.90;84.11;101375.84;5028177;28;20088;-72
2022/01/22 11:41:58;;;;;;;36.17;26.70;;;;;;;5.87;84.00;101381.09;5029097;28;20114;-72
2022/01/22 11:44:26;;;;;;;45.92;26.55;;;;;;;5.88;83.90;101388.06;5025985;28;20033;-73
2022/01/22 11:47:07;;;;;;;47.88;28.63;;;;;;;5.93;83.52;101376.72;5022157;28;20120;-72
2022/01/22 11:49:33;;;;;;;35.38;25.30;;;;;;;5.88;82.84;101372.34;5010537;28;20038;-71
2022/01/22 11:52:07;;;;;;;39.92;24.95;;;;;;;5.90;83.01;101383.69;5008989;28;20373;-73
2022/01/22 11:54:52;;;;;;;39.63;26.27;;;;;;;5.90;82.84;101379.31;5008327;28;20030;-72
2022/01/22 11:57:17;;;;;;;44.70;26.73;;;;;;;5.93;83.34;101381.06;5008824;28;20030;-74
2022/01/22 11:59:46;;;;;;;47.70;28.60;;;;;;;5.89;82.81;101381.97;5009290;28;20172;-74
2022/01/22 12:02:16;;;;;;;38.45;27.77;;;;;;;5.88;82.74;101377.59;5009268;28;20049;-73
2022/01/22 12:04:41;;;;;;;40.10;28.33;;;;;;;5.86;83.10;101380.25;5007488;28;20049;-74
2022/01/22 12:07:10;;;;;;;37.72;26.40;;;;;;;5.89;82.94;101376.72;5008585;28;20630;-72
2022/01/22 12:09:50;;;;;;;45.95;29.85;;;;;;;5.91;83.15;101380.22;5009523;28;20037;-72
2022/01/22 12:15:14;;;;;;;45.38;28.02;;;;;;;6.00;83.03;101372.34;5027547;28;20076;-73
2022/01/22 12:22:57;;;;;;;49.92;34.35;;;;;;;6.01;82.70;101367.09;5016693;28;20087;-71
2022/01/22 12:25:22;;;;;;;52.53;30.50;;;;;;;6.01;82.57;101372.34;5027555;28;20029;-70
2022/01/22 12:27:52;;;;;;;38.28;29.00;;;;;;;6.00;82.31;101367.09;5028077;28;20084;-72
2022/01/22 12:31:02;;;;;;;45.55;30.95;;;;;;;6.00;82.20;101362.72;5014191;28;20145;-71
2022/01/22 12:33:30;;;;;;;46.28;29.00;;;;;;;6.00;82.36;101361.88;4969662;28;20331;-71
2022/01/22 12:36:01;;;;;;;42.03;28.55;;;;;;;6.04;81.84;101358.38;4967397;28;20125;-73
2022/01/22 12:38:37;;;;;;;45.20;29.17;;;;;;;6.08;82.25;101353.97;5004996;28;20037;-72
2022/01/22 12:41:32;;;;;;;43.25;28.63;;;;;;;6.11;81.81;101339.13;4988622;28;20038;-72
2022/01/22 12:44:32;;;;;;;37.60;25.23;;;;;;;6.12;81.79;101346.09;4985779;28;20065;-73
2022/01/22 12:47:09;;;;;;;45.00;28.02;;;;;;;6.11;81.82;101351.34;4995774;28;20100;-74
2022/01/22 12:49:36;;;;;;;51.70;32.25;;;;;;;6.12;81.64;101345.22;4996405;28;20499;-73
2022/01/22 12:52:13;;;;;;;43.08;29.02;;;;;;;6.09;81.78;101340.00;5008723;28;20034;-73
2022/01/22 12:54:43;;;;;;;45.78;32.92;;;;;;;6.06;81.93;101346.13;4989949;28;20042;-72